Time;durP1;ratioP1;P1;durP2;ratioP2;P2;SDS_P1;SDS_P2;PMS_P1;PMS_P2;Temp;Humidity;BMP_temperature;BMP_pressure;BME280_temperature;BME280_humidity;BME280_pressure;Samples;Min_cycle;Max_cycle;Signal;HPM_P1;HPM_P2
2023/01/16 00:00:05;;;;;;;3.37;1.60;;;;;;;;;;5091227;28;20494;-45
2023/01/16 00:02:31;;;;;;;4.93;2.10;;;;;;;;;;5088451;28;20407;-43
2023/01/16 00:04:57;;;;;;;8.50;2.03;;;;;;;;;;5089890;28;20201;-43
2023/01/16 00:07:23;;;;;;;7.83;1.80;;;;;;;;;;5090649;28;20467;-42
2023/01/16 00:09:49;;;;;;;5.53;2.03;;;;;;;;;;5093367;28;20408;-43
2023/01/16 00:12:14;;;;;;;3.17;1.47;;;;;;;;;;5094448;28;20415;-45
2023/01/16 00:14:40;;;;;;;6.93;1.87;;;;;;;;;;5085682;28;20812;-42
2023/01/16 00:17:06;;;;;;;5.67;2.27;;;;;;;;;;5084908;28;20766;-45
2023/01/16 00:19:32;;;;;;;5.57;2.10;;;;;;;;;;5090267;28;20435;-44
2023/01/16 00:21:58;;;;;;;3.03;1.63;;;;;;;;;;5089408;28;20411;-43
2023/01/16 00:24:24;;;;;;;3.30;2.00;;;;;;;;;;5085403;28;20421;-43
2023/01/16 00:26:51;;;;;;;4.77;1.80;;;;;;;;;;5085354;28;20410;-43
2023/01/16 00:29:17;;;;;;;5.88;2.58;;;;;;;;;;5087698;28;20416;-43
2023/01/16 00:31:43;;;;;;;1.70;1.60;;;;;;;;;;5088248;28;20181;-42
2023/01/16 00:34:09;;;;;;;5.00;2.20;;;;;;;;;;5092837;28;20590;-43
2023/01/16 00:36:34;;;;;;;9.33;1.97;;;;;;;;;;5088082;28;20788;-43
2023/01/16 00:39:00;;;;;;;3.00;2.00;;;;;;;;;;5089268;28;20489;-45
2023/01/16 00:41:26;;;;;;;3.00;1.77;;;;;;;;;;5085745;28;20423;-46
2023/01/16 00:43:54;;;;;;;3.47;1.70;;;;;;;;;;5086435;28;20789;-42
2023/01/16 00:46:20;;;;;;;3.88;1.60;;;;;;;;;;5090179;28;20418;-42
2023/01/16 00:48:46;;;;;;;3.83;2.10;;;;;;;;;;5084363;28;20284;-42
2023/01/16 00:51:12;;;;;;;3.50;2.00;;;;;;;;;;5087829;28;20434;-42
2023/01/16 00:53:38;;;;;;;2.10;1.57;;;;;;;;;;5073876;28;20401;-43
2023/01/16 00:56:04;;;;;;;2.03;1.60;;;;;;;;;;5088112;28;20520;-43
2023/01/16 00:58:32;;;;;;;1.85;1.50;;;;;;;;;;5081737;28;20528;-43
2023/01/16 01:00:58;;;;;;;2.92;1.88;;;;;;;;;;5080371;28;20272;-42
2023/01/16 01:03:24;;;;;;;1.53;1.37;;;;;;;;;;5090450;28;20205;-42
2023/01/16 01:05:49;;;;;;;2.67;1.70;;;;;;;;;;5073275;28;20412;-42
2023/01/16 01:08:15;;;;;;;3.00;1.50;;;;;;;;;;5077355;28;20484;-43
2023/01/16 01:10:41;;;;;;;1.80;1.50;;;;;;;;;;5081356;28;20462;-43
2023/01/16 01:13:08;;;;;;;3.00;1.40;;;;;;;;;;5081803;28;20484;-43
2023/01/16 01:15:34;;;;;;;1.92;1.60;;;;;;;;;;5087804;28;20486;-43
2023/01/16 01:18:00;;;;;;;2.20;1.40;;;;;;;;;;5083701;28;20251;-42
2023/01/16 01:20:26;;;;;;;1.95;1.60;;;;;;;;;;5084432;28;20185;-44
2023/01/16 01:22:51;;;;;;;2.10;1.47;;;;;;;;;;5086711;28;20204;-45
2023/01/16 01:25:17;;;;;;;5.43;1.53;;;;;;;;;;5084219;28;20415;-42
2023/01/16 01:27:43;;;;;;;6.15;1.60;;;;;;;;;;5086773;28;20430;-43
2023/01/16 01:30:10;;;;;;;3.27;1.50;;;;;;;;;;5089244;28;20268;-43
2023/01/16 01:32:37;;;;;;;1.58;1.48;;;;;;;;;;5084845;28;20408;-42
2023/01/16 01:35:03;;;;;;;4.00;1.90;;;;;;;;;;5084029;28;20282;-43
2023/01/16 01:37:29;;;;;;;1.88;1.77;;;;;;;;;;5083441;28;20197;-43
2023/01/16 01:39:55;;;;;;;3.30;1.60;;;;;;;;;;5085796;28;20209;-45
2023/01/16 01:45:07;;;;;;;1.40;1.30;;;;;;;;;;5091866;28;20403;-44
2023/01/16 01:47:35;;;;;;;1.80;1.60;;;;;;;;;;5084777;28;20198;-43
2023/01/16 01:50:03;;;;;;;4.43;2.05;;;;;;;;;;5088183;28;20210;-43
2023/01/16 01:52:30;;;;;;;1.75;1.65;;;;;;;;;;5084103;28;20453;-43
2023/01/16 01:54:59;;;;;;;7.95;2.72;;;;;;;;;;5085531;28;20551;-46
2023/01/16 01:57:27;;;;;;;7.80;2.03;;;;;;;;;;5086294;28;20269;-42
2023/01/16 01:59:58;;;;;;;2.78;1.60;;;;;;;;;;5088607;28;20173;-43
2023/01/16 02:02:25;;;;;;;2.47;1.80;;;;;;;;;;5082772;28;20209;-43
2023/01/16 02:04:56;;;;;;;1.50;1.40;;;;;;;;;;5085171;28;20610;-43
2023/01/16 02:07:23;;;;;;;2.00;1.83;;;;;;;;;;5087129;28;20247;-42
2023/01/16 02:09:50;;;;;;;5.97;2.13;;;;;;;;;;5087096;28;20629;-45
2023/01/16 02:12:17;;;;;;;3.22;2.15;;;;;;;;;;5086604;28;20247;-43
2023/01/16 02:14:45;;;;;;;3.83;1.77;;;;;;;;;;5083709;28;20259;-43
2023/01/16 02:20:03;;;;;;;6.45;1.60;;;;;;;;;;5091976;28;20234;-41
2023/01/16 02:22:39;;;;;;;4.03;1.50;;;;;;;;;;5091871;28;20260;-43
2023/01/16 02:25:04;;;;;;;3.38;1.45;;;;;;;;;;5083657;28;20545;-43
2023/01/16 02:27:37;;;;;;;2.80;1.43;;;;;;;;;;5082417;28;20186;-43
2023/01/16 02:30:03;;;;;;;4.78;1.40;;;;;;;;;;5079979;28;20803;-43
2023/01/16 02:32:34;;;;;;;1.30;1.20;;;;;;;;;;5088212;28;20174;-45
2023/01/16 02:35:11;;;;;;;2.85;1.80;;;;;;;;;;5087388;28;20542;-42
2023/01/16 02:37:46;;;;;;;3.13;1.50;;;;;;;;;;5079959;28;20239;-42
2023/01/16 02:40:33;;;;;;;5.93;1.60;;;;;;;;;;5088156;28;20187;-42
2023/01/16 02:43:08;;;;;;;2.78;2.13;;;;;;;;;;5087272;28;20214;-43
2023/01/16 02:45:54;;;;;;;2.88;1.60;;;;;;;;;;5083413;28;20173;-42
2023/01/16 02:48:24;;;;;;;3.83;1.50;;;;;;;;;;5082259;28;20224;-43
2023/01/16 02:51:04;;;;;;;4.25;1.45;;;;;;;;;;5084604;28;20178;-44
2023/01/16 02:53:35;;;;;;;1.45;1.35;;;;;;;;;;5086256;28;20177;-43
2023/01/16 02:56:08;;;;;;;2.67;1.35;;;;;;;;;;5091543;28;20185;-44
2023/01/16 02:58:36;;;;;;;1.77;1.40;;;;;;;;;;5085025;28;20177;-44
2023/01/16 03:01:02;;;;;;;3.67;1.33;;;;;;;;;;5094148;28;20169;-44
2023/01/16 03:06:44;;;;;;;5.80;1.40;;;;;;;;;;5082327;28;20371;-44
2023/01/16 03:09:16;;;;;;;1.80;1.10;;;;;;;;;;5087191;28;20185;-44
2023/01/16 03:11:55;;;;;;;2.65;1.20;;;;;;;;;;5090635;28;20216;-44
2023/01/16 03:14:21;;;;;;;4.35;1.45;;;;;;;;;;5091740;28;20222;-44
2023/01/16 03:17:01;;;;;;;10.93;1.40;;;;;;;;;;5088000;28;20248;-44
2023/01/16 03:19:41;;;;;;;2.65;1.40;;;;;;;;;;5088171;28;20708;-44
2023/01/16 03:22:13;;;;;;;1.50;1.38;;;;;;;;;;5086828;28;20732;-44
2023/01/16 03:24:45;;;;;;;1.52;1.42;;;;;;;;;;5091528;28;20307;-44
2023/01/16 03:27:29;;;;;;;1.13;1.05;;;;;;;;;;5091857;28;20282;-44
2023/01/16 03:30:00;;;;;;;1.63;1.52;;;;;;;;;;5094839;28;20233;-43
2023/01/16 03:32:34;;;;;;;5.40;1.35;;;;;;;;;;5095114;28;20181;-44
2023/01/16 03:35:09;;;;;;;1.50;1.20;;;;;;;;;;5086535;28;20247;-43
2023/01/16 03:37:45;;;;;;;1.10;1.00;;;;;;;;;;5082143;28;20227;-44
2023/01/16 03:40:12;;;;;;;1.77;1.20;;;;;;;;;;5094423;28;20688;-43
2023/01/16 03:42:47;;;;;;;2.30;1.10;;;;;;;;;;5093844;28;20248;-43
2023/01/16 03:45:20;;;;;;;3.05;1.30;;;;;;;;;;5094193;28;20181;-44
2023/01/16 03:47:49;;;;;;;6.38;1.40;;;;;;;;;;5088289;28;20205;-44
2023/01/16 03:50:18;;;;;;;1.38;1.27;;;;;;;;;;5091037;28;20174;-44
2023/01/16 03:52:46;;;;;;;4.47;1.60;;;;;;;;;;5088382;28;20188;-44
2023/01/16 03:55:17;;;;;;;3.00;1.20;;;;;;;;;;5086315;28;20288;-44
2023/01/16 03:57:47;;;;;;;1.17;1.10;;;;;;;;;;5085309;28;20536;-43
2023/01/16 04:00:13;;;;;;;2.17;1.33;;;;;;;;;;5087144;28;20701;-44
2023/01/16 04:03:04;;;;;;;1.33;1.00;;;;;;;;;;5086042;28;20166;-44
2023/01/16 04:05:35;;;;;;;1.60;1.10;;;;;;;;;;5085914;28;20200;-44
2023/01/16 04:08:09;;;;;;;1.20;1.13;;;;;;;;;;5081820;28;20535;-43
2023/01/16 04:10:36;;;;;;;2.25;1.05;;;;;;;;;;5088660;28;20424;-43
2023/01/16 04:13:05;;;;;;;1.15;1.05;;;;;;;;;;5090270;28;20181;-44
2023/01/16 04:15:32;;;;;;;1.08;1.00;;;;;;;;;;5086879;28;20201;-44
2023/01/16 04:17:58;;;;;;;1.30;1.10;;;;;;;;;;5087599;28;20561;-44
2023/01/16 04:20:25;;;;;;;1.15;1.05;;;;;;;;;;5085292;28;20678;-44
2023/01/16 04:22:51;;;;;;;1.20;1.10;;;;;;;;;;5091878;28;20171;-44
2023/01/16 04:25:18;;;;;;;3.00;1.10;;;;;;;;;;5093353;28;20253;-43
2023/01/16 04:27:44;;;;;;;2.25;1.60;;;;;;;;;;5093018;28;20189;-44
2023/01/16 04:30:10;;;;;;;1.98;1.20;;;;;;;;;;5085438;28;20218;-44
2023/01/16 04:32:36;;;;;;;7.45;1.30;;;;;;;;;;5089762;28;20204;-44
2023/01/16 04:35:03;;;;;;;1.20;1.07;;;;;;;;;;5089811;28;20194;-44
2023/01/16 04:37:29;;;;;;;2.47;1.30;;;;;;;;;;5084544;28;20518;-43
2023/01/16 04:39:55;;;;;;;1.50;1.40;;;;;;;;;;5085451;28;20177;-43
2023/01/16 04:42:21;;;;;;;1.90;1.50;;;;;;;;;;5086764;28;20177;-44
2023/01/16 04:44:47;;;;;;;1.30;1.20;;;;;;;;;;5088366;28;20466;-43
2023/01/16 04:47:13;;;;;;;3.47;1.17;;;;;;;;;;5089305;28;20443;-44
2023/01/16 04:49:39;;;;;;;1.33;1.23;;;;;;;;;;5090441;28;20415;-44
2023/01/16 04:52:05;;;;;;;2.20;1.10;;;;;;;;;;5091241;28;20891;-44
2023/01/16 04:54:31;;;;;;;2.38;1.20;;;;;;;;;;5092599;28;20544;-44
2023/01/16 04:56:57;;;;;;;1.70;1.35;;;;;;;;;;5092594;28;20170;-43
2023/01/16 04:59:23;;;;;;;2.23;1.33;;;;;;;;;;5084776;28;20187;-43
2023/01/16 05:01:49;;;;;;;3.43;1.27;;;;;;;;;;5087229;28;20403;-44
2023/01/16 05:04:16;;;;;;;1.63;1.50;;;;;;;;;;5085057;28;20495;-44
2023/01/16 05:06:42;;;;;;;2.20;1.60;;;;;;;;;;5087636;28;20442;-44
2023/01/16 05:09:08;;;;;;;1.30;1.20;;;;;;;;;;5089606;28;20177;-44
2023/01/16 05:11:34;;;;;;;2.38;1.40;;;;;;;;;;5086392;28;20396;-44
2023/01/16 05:14:01;;;;;;;2.17;1.33;;;;;;;;;;5087204;28;20178;-44
2023/01/16 05:16:27;;;;;;;5.50;1.73;;;;;;;;;;5088142;28;20747;-44
2023/01/16 05:18:53;;;;;;;2.47;1.58;;;;;;;;;;5089577;28;20224;-44
2023/01/16 05:21:19;;;;;;;6.10;1.60;;;;;;;;;;5092041;28;20217;-44
2023/01/16 05:23:45;;;;;;;2.73;1.70;;;;;;;;;;5093089;28;20457;-44
2023/01/16 05:26:11;;;;;;;1.70;1.60;;;;;;;;;;5084169;28;20411;-43
2023/01/16 05:28:37;;;;;;;1.80;1.70;;;;;;;;;;5087645;28;20691;-44
2023/01/16 05:31:03;;;;;;;1.98;1.40;;;;;;;;;;5088929;28;20407;-44
2023/01/16 05:33:30;;;;;;;2.78;1.70;;;;;;;;;;5084334;28;20652;-44
2023/01/16 05:35:56;;;;;;;2.40;1.50;;;;;;;;;;5084200;28;20224;-44
2023/01/16 05:38:22;;;;;;;2.67;1.45;;;;;;;;;;5086448;28;20230;-44
2023/01/16 05:40:48;;;;;;;1.90;1.35;;;;;;;;;;5084604;28;20173;-44
2023/01/16 05:43:15;;;;;;;3.97;1.40;;;;;;;;;;5075929;28;20181;-44
2023/01/16 05:45:41;;;;;;;1.40;1.30;;;;;;;;;;5085724;28;20256;-44
2023/01/16 05:48:07;;;;;;;1.52;1.42;;;;;;;;;;5083857;28;20205;-44
2023/01/16 05:50:33;;;;;;;2.23;1.77;;;;;;;;;;5083834;28;20178;-44
2023/01/16 05:52:59;;;;;;;2.37;1.53;;;;;;;;;;5085129;28;20448;-44
2023/01/16 05:55:25;;;;;;;1.40;1.30;;;;;;;;;;5087061;28;20794;-44
2023/01/16 05:57:51;;;;;;;2.43;1.30;;;;;;;;;;5090931;28;20485;-44
2023/01/16 06:00:17;;;;;;;2.03;1.40;;;;;;;;;;5088606;28;20431;-44
2023/01/16 06:02:44;;;;;;;1.67;1.50;;;;;;;;;;5081111;28;20166;-44
2023/01/16 06:05:10;;;;;;;1.90;1.48;;;;;;;;;;5088363;28;20173;-44
2023/01/16 06:07:36;;;;;;;2.30;1.40;;;;;;;;;;5089407;28;20262;-44
2023/01/16 06:10:02;;;;;;;2.50;1.50;;;;;;;;;;5085844;28;20416;-43
2023/01/16 06:12:28;;;;;;;4.90;1.97;;;;;;;;;;5087789;28;20419;-44
2023/01/16 06:14:54;;;;;;;2.03;1.40;;;;;;;;;;5089281;28;20447;-44
2023/01/16 06:17:20;;;;;;;1.10;1.00;;;;;;;;;;5090076;28;20719;-43
2023/01/16 06:19:46;;;;;;;1.33;1.23;;;;;;;;;;5086279;28;20569;-44
2023/01/16 06:22:13;;;;;;;3.03;1.17;;;;;;;;;;5089064;28;20425;-43
2023/01/16 06:24:39;;;;;;;1.65;1.50;;;;;;;;;;5086796;28;20407;-43
2023/01/16 06:27:05;;;;;;;1.40;1.30;;;;;;;;;;5086727;28;20479;-43
2023/01/16 06:29:31;;;;;;;1.87;1.23;;;;;;;;;;5087992;28;20178;-43
2023/01/16 06:31:57;;;;;;;1.80;1.63;;;;;;;;;;5090741;28;20964;-43
2023/01/16 06:34:23;;;;;;;8.40;1.90;;;;;;;;;;5091657;28;20189;-43
2023/01/16 06:36:49;;;;;;;3.90;1.40;;;;;;;;;;5082378;28;20404;-43
2023/01/16 06:39:15;;;;;;;1.77;1.17;;;;;;;;;;5083330;28;20836;-43
2023/01/16 06:41:41;;;;;;;1.33;1.20;;;;;;;;;;5086858;28;20170;-43
2023/01/16 06:44:07;;;;;;;6.07;1.50;;;;;;;;;;5088209;28;20272;-43
2023/01/16 06:46:33;;;;;;;2.50;1.80;;;;;;;;;;5083089;28;20174;-43
2023/01/16 06:48:59;;;;;;;3.00;1.10;;;;;;;;;;5083803;28;20262;-44
2023/01/16 06:51:25;;;;;;;1.85;1.30;;;;;;;;;;5084853;28;20419;-43
2023/01/16 06:53:51;;;;;;;7.53;1.77;;;;;;;;;;5087054;28;20174;-43
2023/01/16 06:56:17;;;;;;;1.70;1.27;;;;;;;;;;5082769;28;20463;-44
2023/01/16 06:58:43;;;;;;;1.80;1.70;;;;;;;;;;5084622;28;20436;-43
2023/01/16 07:01:09;;;;;;;2.90;1.60;;;;;;;;;;5087073;28;20462;-43
2023/01/16 07:03:35;;;;;;;1.60;1.50;;;;;;;;;;5083615;28;20169;-43
2023/01/16 07:06:01;;;;;;;4.30;1.50;;;;;;;;;;5084332;28;20847;-44
2023/01/16 07:08:27;;;;;;;1.67;1.38;;;;;;;;;;5085698;28;20189;-43
2023/01/16 07:10:54;;;;;;;1.43;1.33;;;;;;;;;;5087517;28;20180;-44
2023/01/16 07:13:26;;;;;;;2.40;1.75;;;;;;;;;;5089679;28;20906;-43
2023/01/16 07:24:11;;;;;;;1.67;1.58;;;;;;;;;;5079510;28;20248;-43
2023/01/16 07:26:37;;;;;;;1.50;1.40;;;;;;;;;;5086323;28;20176;-44
2023/01/16 07:29:04;;;;;;;2.10;1.92;;;;;;;;;;5087119;28;20193;-43
2023/01/16 07:31:31;;;;;;;2.00;1.90;;;;;;;;;;5079855;28;20178;-44
2023/01/16 07:33:57;;;;;;;1.80;1.67;;;;;;;;;;5086403;28;20230;-44
2023/01/16 07:36:23;;;;;;;2.40;1.80;;;;;;;;;;5082412;28;20672;-43
2023/01/16 07:38:49;;;;;;;1.93;1.83;;;;;;;;;;5079366;28;20331;-43
2023/01/16 07:41:15;;;;;;;1.60;1.50;;;;;;;;;;5085466;28;20460;-44
2023/01/16 07:43:41;;;;;;;1.75;1.65;;;;;;;;;;5082993;28;20174;-44
2023/01/16 07:46:07;;;;;;;1.90;1.80;;;;;;;;;;5083464;28;20279;-44
2023/01/16 07:48:33;;;;;;;2.83;1.87;;;;;;;;;;5090564;28;20673;-44
2023/01/16 07:51:00;;;;;;;4.78;1.90;;;;;;;;;;5090487;28;20953;-44
2023/01/16 07:53:27;;;;;;;2.28;1.95;;;;;;;;;;5086310;28;20221;-44
2023/01/16 07:55:58;;;;;;;1.55;1.45;;;;;;;;;;5085717;28;20196;-43
2023/01/16 07:58:24;;;;;;;3.08;1.80;;;;;;;;;;5090949;28;20272;-44
2023/01/16 08:00:52;;;;;;;4.17;2.10;;;;;;;;;;5086194;28;20304;-43
2023/01/16 08:03:18;;;;;;;2.35;1.73;;;;;;;;;;5084206;28;20487;-43
2023/01/16 08:05:44;;;;;;;2.35;1.40;;;;;;;;;;5089204;28;20174;-43
2023/01/16 08:08:10;;;;;;;2.60;2.40;;;;;;;;;;5090652;28;20204;-44
2023/01/16 08:10:36;;;;;;;1.77;1.50;;;;;;;;;;5091682;28;20443;-42
2023/01/16 08:13:03;;;;;;;1.95;1.83;;;;;;;;;;5094376;28;20243;-42
2023/01/16 08:15:29;;;;;;;1.90;1.80;;;;;;;;;;5085714;28;20460;-44
2023/01/16 08:17:55;;;;;;;4.30;1.63;;;;;;;;;;5085176;28;20189;-43
2023/01/16 08:20:21;;;;;;;1.90;1.80;;;;;;;;;;5085711;28;20227;-43
2023/01/16 08:22:48;;;;;;;1.77;1.63;;;;;;;;;;5088363;28;20896;-43
2023/01/16 08:25:14;;;;;;;3.20;1.88;;;;;;;;;;5090350;28;20177;-43
2023/01/16 08:27:41;;;;;;;3.00;1.80;;;;;;;;;;5086644;28;20301;-44
2023/01/16 08:30:07;;;;;;;5.03;1.77;;;;;;;;;;5087364;28;20276;-44
2023/01/16 08:32:33;;;;;;;3.35;1.75;;;;;;;;;;5088887;28;20542;-43
2023/01/16 08:34:59;;;;;;;5.57;2.00;;;;;;;;;;5087029;28;20190;-43
2023/01/16 08:37:25;;;;;;;1.47;1.37;;;;;;;;;;5084666;28;20424;-43
2023/01/16 08:39:51;;;;;;;3.40;1.80;;;;;;;;;;5087377;28;20447;-43
2023/01/16 08:53:15;;;;;;;1.85;1.50;;;;;;;;;;5089078;28;20231;-43
2023/01/16 08:55:41;;;;;;;2.60;1.73;;;;;;;;;;5086417;28;20201;-44
2023/01/16 08:58:07;;;;;;;3.73;1.73;;;;;;;;;;5084238;28;20485;-44
2023/01/16 09:00:34;;;;;;;1.57;1.47;;;;;;;;;;5087667;28;20400;-44
2023/01/16 09:03:01;;;;;;;5.18;1.58;;;;;;;;;;5089998;28;20411;-43
2023/01/16 09:05:27;;;;;;;2.40;1.63;;;;;;;;;;5090873;28;20174;-44
2023/01/16 09:07:53;;;;;;;3.13;1.40;;;;;;;;;;5091901;28;20235;-43
2023/01/16 09:10:19;;;;;;;1.80;1.70;;;;;;;;;;5091990;28;20557;-44
2023/01/16 09:15:30;;;;;;;1.83;1.50;;;;;;;;;;5089131;28;20503;-44
2023/01/16 09:17:56;;;;;;;1.70;1.60;;;;;;;;;;5087144;28;20225;-44
2023/01/16 09:20:22;;;;;;;3.27;2.03;;;;;;;;;;5084201;28;20420;-43
2023/01/16 09:22:48;;;;;;;7.63;2.50;;;;;;;;;;5084162;28;20400;-44
2023/01/16 09:25:14;;;;;;;3.50;1.73;;;;;;;;;;5085959;28;20409;-44
2023/01/16 09:27:40;;;;;;;3.37;1.37;;;;;;;;;;5087093;28;20421;-44
2023/01/16 09:30:07;;;;;;;1.65;1.55;;;;;;;;;;5092449;28;20898;-44
2023/01/16 09:32:33;;;;;;;1.60;1.30;;;;;;;;;;5089598;28;20185;-44
2023/01/16 09:34:59;;;;;;;3.33;1.65;;;;;;;;;;5091102;28;20186;-44
2023/01/16 09:37:25;;;;;;;1.67;1.20;;;;;;;;;;5081249;28;20204;-44
2023/01/16 09:39:51;;;;;;;2.37;1.50;;;;;;;;;;5092601;28;20410;-43
2023/01/16 09:45:42;;;;;;;2.22;1.58;;;;;;;;;;5010738;28;20574;-44
2023/01/16 09:48:13;;;;;;;1.60;1.40;;;;;;;;;;5009354;28;20279;-44
2023/01/16 09:50:42;;;;;;;4.38;1.80;;;;;;;;;;5046835;28;20189;-45
2023/01/16 09:59:00;;;;;;;1.50;1.40;;;;;;;;;;5091933;28;20192;-44
2023/01/16 10:01:46;;;;;;;4.00;1.50;;;;;;;;;;5092184;28;20167;-44
2023/01/16 10:04:23;;;;;;;2.17;1.42;;;;;;;;;;5091588;28;20170;-45
2023/01/16 10:07:09;;;;;;;3.47;1.80;;;;;;;;;;5091266;28;20170;-44
2023/01/16 10:09:35;;;;;;;1.45;1.20;;;;;;;;;;5050817;28;20185;-45
2023/01/16 10:12:12;;;;;;;1.53;1.43;;;;;;;;;;5092235;28;20204;-45
2023/01/16 10:14:53;;;;;;;3.97;1.65;;;;;;;;;;5091524;28;20454;-44
2023/01/16 10:17:40;;;;;;;1.40;1.30;;;;;;;;;;5091215;28;20194;-44
2023/01/16 10:20:14;;;;;;;1.75;1.65;;;;;;;;;;5092009;28;20228;-44
2023/01/16 10:22:59;;;;;;;2.78;1.48;;;;;;;;;;5090696;28;20192;-44
2023/01/16 10:25:28;;;;;;;1.58;1.45;;;;;;;;;;5083596;28;20226;-44
2023/01/16 10:28:08;;;;;;;1.83;1.35;;;;;;;;;;5082133;28;20193;-44
2023/01/16 10:30:39;;;;;;;4.88;1.75;;;;;;;;;;5091932;28;20180;-44
2023/01/16 10:33:17;;;;;;;2.13;1.60;;;;;;;;;;5091971;28;20248;-44
2023/01/16 10:35:44;;;;;;;3.10;1.42;;;;;;;;;;5091385;28;20680;-45
2023/01/16 10:38:20;;;;;;;2.00;1.80;;;;;;;;;;5090897;28;20221;-44
2023/01/16 10:40:48;;;;;;;2.28;1.48;;;;;;;;;;5073911;28;20174;-44
2023/01/16 10:51:45;;;;;;;4.70;1.65;;;;;;;;;;5091710;28;20180;-44
2023/01/16 10:54:11;;;;;;;1.67;1.38;;;;;;;;;;5091485;28;20165;-44
2023/01/16 10:56:40;;;;;;;3.23;1.50;;;;;;;;;;5090669;28;20757;-44
2023/01/16 10:59:05;;;;;;;1.48;1.38;;;;;;;;;;5086629;28;20399;-44
2023/01/16 11:01:32;;;;;;;2.83;1.10;;;;;;;;;;5091549;28;20184;-45
2023/01/16 11:04:01;;;;;;;1.52;1.42;;;;;;;;;;5084255;28;20443;-44
2023/01/16 11:06:28;;;;;;;1.20;1.10;;;;;;;;;;5085710;28;20246;-44
2023/01/16 11:09:00;;;;;;;1.50;1.40;;;;;;;;;;5086810;28;20208;-44
2023/01/16 11:20:03;;;;;;;5.07;1.52;;;;;;;;;;5085441;28;20250;-42
2023/01/16 11:22:29;;;;;;;4.60;1.10;;;;;;;;;;5092395;28;20170;-42
2023/01/16 11:24:59;;;;;;;1.20;1.10;;;;;;;;;;5089954;28;20187;-42
2023/01/16 11:27:26;;;;;;;1.65;1.40;;;;;;;;;;5091430;28;20427;-42
2023/01/16 11:29:53;;;;;;;1.38;1.27;;;;;;;;;;5095288;28;20182;-42
2023/01/16 11:32:24;;;;;;;2.55;1.20;;;;;;;;;;5095098;28;20178;-42
2023/01/16 11:34:50;;;;;;;1.50;1.40;;;;;;;;;;5094796;28;20205;-44
2023/01/16 11:37:17;;;;;;;2.53;1.30;;;;;;;;;;5094410;28;20247;-44
2023/01/16 11:39:47;;;;;;;1.52;1.15;;;;;;;;;;5089525;28;20170;-46
2023/01/16 11:47:45;;;;;;;1.00;1.00;;;;;;;;;;5073576;28;21065;-46
2023/01/16 11:50:22;;;;;;;1.87;1.20;;;;;;;;;;5094615;28;20677;-47
2023/01/16 11:52:48;;;;;;;1.30;1.20;;;;;;;;;;5094442;28;20413;-48
2023/01/16 11:55:14;;;;;;;2.50;2.30;;;;;;;;;;5088909;28;20442;-45
2023/01/16 11:57:40;;;;;;;1.50;1.40;;;;;;;;;;5093170;28;20444;-47
2023/01/16 12:00:21;;;;;;;2.33;1.40;;;;;;;;;;5094769;28;20904;-43
2023/01/16 12:03:05;;;;;;;1.27;1.17;;;;;;;;;;5088650;28;20396;-46
2023/01/16 12:08:25;;;;;;;1.40;1.30;;;;;;;;;;5083598;28;21016;-46
2023/01/16 12:11:10;;;;;;;2.25;1.10;;;;;;;;;;5086601;28;20216;-45
2023/01/16 12:16:52;;;;;;;1.15;1.00;;;;;;;;;;5084562;28;20243;-42
2023/01/16 12:19:18;;;;;;;8.07;1.60;;;;;;;;;;5084572;28;20222;-46
2023/01/16 12:21:56;;;;;;;1.00;0.90;;;;;;;;;;5085444;28;20540;-45
2023/01/16 12:24:31;;;;;;;1.20;1.10;;;;;;;;;;5086246;28;20446;-45
2023/01/16 12:27:09;;;;;;;1.20;1.10;;;;;;;;;;5085013;28;20178;-46
2023/01/16 12:29:44;;;;;;;2.08;1.20;;;;;;;;;;5082536;28;20170;-47
2023/01/16 12:32:18;;;;;;;2.10;1.30;;;;;;;;;;5093401;28;20215;-46
2023/01/16 12:35:03;;;;;;;1.63;1.52;;;;;;;;;;5091732;28;20246;-47
2023/01/16 12:37:34;;;;;;;1.77;1.60;;;;;;;;;;5090724;28;20255;-47
2023/01/16 12:40:04;;;;;;;1.35;1.25;;;;;;;;;;5093156;28;20411;-45
2023/01/16 12:45:50;;;;;;;1.10;1.00;;;;;;;;;;5090063;28;20257;-45
2023/01/16 12:48:18;;;;;;;1.40;1.30;;;;;;;;;;5089429;28;20189;-46
2023/01/16 12:50:47;;;;;;;1.23;1.13;;;;;;;;;;5087301;28;20189;-47
2023/01/16 12:53:24;;;;;;;1.95;1.65;;;;;;;;;;5085303;28;20185;-44
2023/01/16 12:55:52;;;;;;;2.28;1.30;;;;;;;;;;5089604;28;20193;-46
2023/01/16 12:58:21;;;;;;;1.40;1.30;;;;;;;;;;5084594;28;20225;-45
2023/01/16 13:00:49;;;;;;;5.07;1.40;;;;;;;;;;5085319;28;20637;-46
2023/01/16 13:03:20;;;;;;;1.75;1.10;;;;;;;;;;5085272;28;20170;-46
2023/01/16 13:05:46;;;;;;;3.83;1.20;;;;;;;;;;5088083;28;20204;-47
2023/01/16 13:08:19;;;;;;;1.60;1.50;;;;;;;;;;5088816;28;20590;-45
2023/01/16 13:13:35;;;;;;;6.50;3.10;;;;;;;;;;5083349;28;20255;-44
2023/01/16 13:16:13;;;;;;;2.13;1.63;;;;;;;;;;5092454;28;20668;-45
2023/01/16 13:18:43;;;;;;;1.30;1.20;;;;;;;;;;5092333;28;20673;-45
2023/01/16 13:21:14;;;;;;;1.33;1.23;;;;;;;;;;5093383;28;20238;-46
2023/01/16 13:23:44;;;;;;;1.38;1.27;;;;;;;;;;5093482;28;20165;-46
2023/01/16 13:26:13;;;;;;;1.90;1.35;;;;;;;;;;5093821;28;20649;-46
2023/01/16 13:28:50;;;;;;;2.58;1.40;;;;;;;;;;5093370;28;20204;-48
2023/01/16 13:31:22;;;;;;;1.45;1.35;;;;;;;;;;5093242;28;20166;-47
2023/01/16 13:33:51;;;;;;;1.48;1.38;;;;;;;;;;5092860;28;20193;-45
2023/01/16 13:36:35;;;;;;;1.75;1.63;;;;;;;;;;5092931;28;20212;-45
2023/01/16 13:39:19;;;;;;;2.55;1.60;;;;;;;;;;5092296;28;20205;-47
2023/01/16 13:41:47;;;;;;;1.10;1.00;;;;;;;;;;5080266;28;20213;-45
2023/01/16 13:47:30;;;;;;;1.63;1.52;;;;;;;;;;5085553;28;20204;-45
2023/01/16 13:50:18;;;;;;;2.97;1.20;;;;;;;;;;5076883;28;20233;-45
2023/01/16 13:52:44;;;;;;;1.50;1.40;;;;;;;;;;5086300;28;20174;-45
2023/01/16 13:55:21;;;;;;;1.30;1.20;;;;;;;;;;5091888;28;20212;-47
2023/01/16 13:57:47;;;;;;;1.60;1.50;;;;;;;;;;5091297;28;20548;-46
2023/01/16 14:00:13;;;;;;;1.20;1.10;;;;;;;;;;5089311;28;20212;-45
2023/01/16 14:02:43;;;;;;;1.45;1.35;;;;;;;;;;5090971;28;20655;-45
2023/01/16 14:05:17;;;;;;;1.40;1.30;;;;;;;;;;5092031;28;20170;-45
2023/01/16 14:10:41;;;;;;;1.65;1.30;;;;;;;;;;5080564;28;20202;-45
2023/01/16 14:13:14;;;;;;;3.55;1.40;;;;;;;;;;5091792;28;20170;-45
2023/01/16 14:18:59;;;;;;;1.70;1.60;;;;;;;;;;5082814;28;20206;-45
2023/01/16 14:21:38;;;;;;;1.38;1.27;;;;;;;;;;5083587;28;20212;-47
2023/01/16 14:24:12;;;;;;;1.83;1.30;;;;;;;;;;5084039;28;20277;-46
2023/01/16 14:26:47;;;;;;;1.52;1.27;;;;;;;;;;5083577;28;20257;-47
2023/01/16 14:29:20;;;;;;;1.45;1.35;;;;;;;;;;5087952;28;20179;-47
2023/01/16 14:31:54;;;;;;;1.40;1.30;;;;;;;;;;5085428;28;20609;-47
2023/01/16 14:34:44;;;;;;;1.30;1.20;;;;;;;;;;5083809;28;20180;-47
2023/01/16 14:37:29;;;;;;;1.90;1.10;;;;;;;;;;5084583;28;20284;-48
2023/01/16 14:39:59;;;;;;;1.40;1.30;;;;;;;;;;5086993;28;20257;-46
2023/01/16 14:56:34;;;;;;;1.60;1.50;;;;;;;;;;5086430;28;20259;-45
2023/01/16 14:59:18;;;;;;;1.52;1.33;;;;;;;;;;5091870;28;20289;-45
2023/01/16 15:04:46;;;;;;;1.50;1.40;;;;;;;;;;5081259;28;20660;-45
2023/01/16 15:07:14;;;;;;;2.55;1.30;;;;;;;;;;5076211;28;20193;-47
2023/01/16 15:09:43;;;;;;;1.80;1.70;;;;;;;;;;5090700;28;20503;-45
2023/01/16 15:12:17;;;;;;;2.70;1.52;;;;;;;;;;5091494;28;20311;-46
2023/01/16 15:14:56;;;;;;;1.90;1.65;;;;;;;;;;5079483;28;20169;-46
2023/01/16 15:23:28;;;;;;;1.75;1.60;;;;;;;;;;5080706;28;20673;-45
2023/01/16 15:26:03;;;;;;;1.73;1.63;;;;;;;;;;5079654;28;20181;-48
2023/01/16 15:28:33;;;;;;;1.70;1.60;;;;;;;;;;5087507;28;20278;-46
2023/01/16 15:31:01;;;;;;;1.70;1.60;;;;;;;;;;5087942;28;20170;-46
2023/01/16 15:36:12;;;;;;;2.95;2.05;;;;;;;;;;5086524;28;20208;-46
2023/01/16 15:38:38;;;;;;;1.88;1.77;;;;;;;;;;5087361;28;20284;-48
2023/01/16 15:41:04;;;;;;;1.50;1.40;;;;;;;;;;5089851;28;20260;-47
2023/01/16 15:46:34;;;;;;;2.30;2.20;;;;;;;;;;5082885;28;20564;-48
2023/01/16 15:49:15;;;;;;;2.20;2.10;;;;;;;;;;5074167;28;20205;-48
2023/01/16 15:51:41;;;;;;;3.15;2.25;;;;;;;;;;5091073;28;20556;-45
2023/01/16 15:54:14;;;;;;;2.53;2.40;;;;;;;;;;5084047;28;20212;-46
2023/01/16 15:56:44;;;;;;;2.30;2.20;;;;;;;;;;5082344;28;20198;-46
2023/01/16 15:59:27;;;;;;;2.78;2.67;;;;;;;;;;5090655;28;20169;-46
2023/01/16 16:01:53;;;;;;;2.30;2.20;;;;;;;;;;5081895;28;20186;-47
2023/01/16 16:04:20;;;;;;;3.40;2.45;;;;;;;;;;5092725;28;20173;-48
2023/01/16 16:06:46;;;;;;;1.60;1.50;;;;;;;;;;5085907;28;20265;-45
2023/01/16 16:09:18;;;;;;;2.63;2.42;;;;;;;;;;5090538;28;20186;-45
2023/01/16 16:11:54;;;;;;;2.97;2.30;;;;;;;;;;5085674;28;20178;-45
2023/01/16 16:20:25;;;;;;;2.35;2.20;;;;;;;;;;5090511;28;20280;-46
2023/01/16 16:22:52;;;;;;;2.63;2.53;;;;;;;;;;5088601;28;20226;-46
2023/01/16 16:25:42;;;;;;;2.65;2.17;;;;;;;;;;5085769;28;20185;-46
2023/01/16 16:28:38;;;;;;;1.92;1.83;;;;;;;;;;5074648;28;20224;-48
2023/01/16 16:31:04;;;;;;;2.92;2.72;;;;;;;;;;5086621;28;20196;-46
2023/01/16 16:33:31;;;;;;;2.13;1.92;;;;;;;;;;5089454;28;20177;-46
2023/01/16 16:35:58;;;;;;;2.30;2.10;;;;;;;;;;5091138;28;20196;-46
2023/01/16 16:38:24;;;;;;;2.90;2.70;;;;;;;;;;5091380;28;20397;-47
2023/01/16 16:41:08;;;;;;;3.85;2.53;;;;;;;;;;5093980;28;20266;-47
2023/01/16 16:43:50;;;;;;;2.55;2.35;;;;;;;;;;5094092;28;20169;-47
2023/01/16 16:46:27;;;;;;;2.20;2.10;;;;;;;;;;5094358;28;20641;-47
2023/01/16 16:49:23;;;;;;;3.00;2.80;;;;;;;;;;5093845;28;20193;-46
2023/01/16 16:51:48;;;;;;;3.00;2.80;;;;;;;;;;5060835;28;20201;-48
2023/01/16 16:54:16;;;;;;;3.50;3.00;;;;;;;;;;5090453;28;20264;-46